<?xml version="1.0" encoding="UTF-8" standalone="no" ?>
<gpx xmlns="http://www.topografix.com/GPX/1/1" xmlns:xsi="http://www.w3.org/2001/XMLSchema-instance" xsi:schemaLocation="http://www.topografix.com/GPX/1/1 http://www.topografix.com/GPX/1/1/gpx.xsd" version="1.1" creator="VisuGPX - https://www.visugpx.com">
  <metadata>
    <name>AMBERTRAIL 2023  13 KM</name>
  </metadata>
  <trk>
    <name><![CDATA[AMBERTRAIL 2023  13 KM sur TraceDeTrail.fr]]></name>
    <trkseg>
      <trkpt lat="45.48109" lon="3.72522">
        <ele>539</ele>
        <time>2000-01-01T00:21:30.000Z</time>
      </trkpt>
      <trkpt lat="45.48109" lon="3.72522">
        <ele>546.2</ele>
        <time>2000-01-01T00:21:40.000Z</time>
      </trkpt>
      <trkpt lat="45.48082" lon="3.72505">
        <ele>537</ele>
        <time>2000-01-01T00:21:50.000Z</time>
      </trkpt>
      <trkpt lat="45.48048" lon="3.72503">
        <ele>538</ele>
        <time>2000-01-01T00:22:00.000Z</time>
      </trkpt>
      <trkpt lat="45.48014" lon="3.725">
        <ele>538</ele>
        <time>2000-01-01T00:22:10.000Z</time>
      </trkpt>
      <trkpt lat="45.47989" lon="3.72499">
        <ele>539</ele>
        <time>2000-01-01T00:22:20.000Z</time>
      </trkpt>
      <trkpt lat="45.47962" lon="3.72497">
        <ele>539</ele>
        <time>2000-01-01T00:22:30.000Z</time>
      </trkpt>
      <trkpt lat="45.47944" lon="3.72521">
        <ele>537</ele>
        <time>2000-01-01T00:22:40.000Z</time>
      </trkpt>
      <trkpt lat="45.47916" lon="3.72518">
        <ele>537</ele>
        <time>2000-01-01T00:22:50.000Z</time>
      </trkpt>
      <trkpt lat="45.47873" lon="3.72514">
        <ele>534</ele>
        <time>2000-01-01T00:23:00.000Z</time>
      </trkpt>
      <trkpt lat="45.47877" lon="3.72472">
        <ele>534</ele>
        <time>2000-01-01T00:23:10.000Z</time>
      </trkpt>
      <trkpt lat="45.47881" lon="3.72437">
        <ele>535</ele>
        <time>2000-01-01T00:23:20.000Z</time>
      </trkpt>
      <trkpt lat="45.47885" lon="3.724">
        <ele>535</ele>
        <time>2000-01-01T00:23:30.000Z</time>
      </trkpt>
      <trkpt lat="45.47894" lon="3.72357">
        <ele>539</ele>
        <time>2000-01-01T00:23:40.000Z</time>
      </trkpt>
      <trkpt lat="45.47902" lon="3.72313">
        <ele>539</ele>
        <time>2000-01-01T00:23:50.000Z</time>
      </trkpt>
      <trkpt lat="45.47911" lon="3.72269">
        <ele>539</ele>
        <time>2000-01-01T00:24:00.000Z</time>
      </trkpt>
      <trkpt lat="45.47912" lon="3.72233">
        <ele>539</ele>
        <time>2000-01-01T00:24:10.000Z</time>
      </trkpt>
      <trkpt lat="45.47913" lon="3.72191">
        <ele>539</ele>
        <time>2000-01-01T00:24:20.000Z</time>
      </trkpt>
      <trkpt lat="45.47933" lon="3.72152">
        <ele>539</ele>
        <time>2000-01-01T00:24:30.000Z</time>
      </trkpt>
      <trkpt lat="45.47953" lon="3.72113">
        <ele>539</ele>
        <time>2000-01-01T00:24:40.000Z</time>
      </trkpt>
      <trkpt lat="45.47967" lon="3.72085">
        <ele>537</ele>
        <time>2000-01-01T00:24:50.000Z</time>
      </trkpt>
      <trkpt lat="45.47982" lon="3.72056">
        <ele>537</ele>
        <time>2000-01-01T00:25:00.000Z</time>
      </trkpt>
      <trkpt lat="45.48002" lon="3.72025">
        <ele>538</ele>
        <time>2000-01-01T00:25:10.000Z</time>
      </trkpt>
      <trkpt lat="45.48018" lon="3.72">
        <ele>540</ele>
        <time>2000-01-01T00:25:20.000Z</time>
      </trkpt>
      <trkpt lat="45.48034" lon="3.71974">
        <ele>545</ele>
        <time>2000-01-01T00:25:30.000Z</time>
      </trkpt>
      <trkpt lat="45.48045" lon="3.71929">
        <ele>546</ele>
        <time>2000-01-01T00:25:40.000Z</time>
      </trkpt>
      <trkpt lat="45.48056" lon="3.71884">
        <ele>547</ele>
        <time>2000-01-01T00:25:50.000Z</time>
      </trkpt>
      <trkpt lat="45.48064" lon="3.71851">
        <ele>551</ele>
        <time>2000-01-01T00:26:00.000Z</time>
      </trkpt>
      <trkpt lat="45.48072" lon="3.71818">
        <ele>555</ele>
        <time>2000-01-01T00:26:10.000Z</time>
      </trkpt>
      <trkpt lat="45.48064" lon="3.71784">
        <ele>555</ele>
        <time>2000-01-01T00:26:20.000Z</time>
      </trkpt>
      <trkpt lat="45.48073" lon="3.71742">
        <ele>557</ele>
        <time>2000-01-01T00:26:30.000Z</time>
      </trkpt>
      <trkpt lat="45.48081" lon="3.71706">
        <ele>561</ele>
        <time>2000-01-01T00:26:40.000Z</time>
      </trkpt>
      <trkpt lat="45.48091" lon="3.71661">
        <ele>561</ele>
        <time>2000-01-01T00:26:50.000Z</time>
      </trkpt>
      <trkpt lat="45.48101" lon="3.7161">
        <ele>562</ele>
        <time>2000-01-01T00:27:00.000Z</time>
      </trkpt>
      <trkpt lat="45.48111" lon="3.7156">
        <ele>562</ele>
        <time>2000-01-01T00:27:10.000Z</time>
      </trkpt>
      <trkpt lat="45.48121" lon="3.71509">
        <ele>565</ele>
        <time>2000-01-01T00:27:20.000Z</time>
      </trkpt>
      <trkpt lat="45.48128" lon="3.71473">
        <ele>568</ele>
        <time>2000-01-01T00:27:30.000Z</time>
      </trkpt>
      <trkpt lat="45.48137" lon="3.71429">
        <ele>568</ele>
        <time>2000-01-01T00:27:40.000Z</time>
      </trkpt>
      <trkpt lat="45.4813" lon="3.71397">
        <ele>569</ele>
        <time>2000-01-01T00:27:50.000Z</time>
      </trkpt>
      <trkpt lat="45.48122" lon="3.71364">
        <ele>571</ele>
        <time>2000-01-01T00:28:00.000Z</time>
      </trkpt>
      <trkpt lat="45.48135" lon="3.7131">
        <ele>579</ele>
        <time>2000-01-01T00:28:10.000Z</time>
      </trkpt>
      <trkpt lat="45.48148" lon="3.71256">
        <ele>589</ele>
        <time>2000-01-01T00:28:20.000Z</time>
      </trkpt>
      <trkpt lat="45.48161" lon="3.71203">
        <ele>593</ele>
        <time>2000-01-01T00:28:30.000Z</time>
      </trkpt>
      <trkpt lat="45.48174" lon="3.71149">
        <ele>597</ele>
        <time>2000-01-01T00:28:40.000Z</time>
      </trkpt>
      <trkpt lat="45.48187" lon="3.71095">
        <ele>597</ele>
        <time>2000-01-01T00:28:50.000Z</time>
      </trkpt>
      <trkpt lat="45.48196" lon="3.71061">
        <ele>597</ele>
        <time>2000-01-01T00:29:00.000Z</time>
      </trkpt>
      <trkpt lat="45.48206" lon="3.71019">
        <ele>603</ele>
        <time>2000-01-01T00:29:10.000Z</time>
      </trkpt>
      <trkpt lat="45.48215" lon="3.70968">
        <ele>606</ele>
        <time>2000-01-01T00:29:20.000Z</time>
      </trkpt>
      <trkpt lat="45.48224" lon="3.70917">
        <ele>609</ele>
        <time>2000-01-01T00:29:30.000Z</time>
      </trkpt>
      <trkpt lat="45.48233" lon="3.70866">
        <ele>613</ele>
        <time>2000-01-01T00:29:40.000Z</time>
      </trkpt>
      <trkpt lat="45.48239" lon="3.70829">
        <ele>614</ele>
        <time>2000-01-01T00:29:50.000Z</time>
      </trkpt>
      <trkpt lat="45.48247" lon="3.70784">
        <ele>623</ele>
        <time>2000-01-01T00:30:00.000Z</time>
      </trkpt>
      <trkpt lat="45.48247" lon="3.70725">
        <ele>625</ele>
        <time>2000-01-01T00:30:10.000Z</time>
      </trkpt>
      <trkpt lat="45.48266" lon="3.70684">
        <ele>630</ele>
        <time>2000-01-01T00:30:20.000Z</time>
      </trkpt>
      <trkpt lat="45.48284" lon="3.70644">
        <ele>634</ele>
        <time>2000-01-01T00:30:30.000Z</time>
      </trkpt>
      <trkpt lat="45.48298" lon="3.70614">
        <ele>638</ele>
        <time>2000-01-01T00:30:40.000Z</time>
      </trkpt>
      <trkpt lat="45.48314" lon="3.7058">
        <ele>643</ele>
        <time>2000-01-01T00:30:50.000Z</time>
      </trkpt>
      <trkpt lat="45.4833" lon="3.7054">
        <ele>643</ele>
        <time>2000-01-01T00:31:00.000Z</time>
      </trkpt>
      <trkpt lat="45.48347" lon="3.70501">
        <ele>644</ele>
        <time>2000-01-01T00:31:10.000Z</time>
      </trkpt>
      <trkpt lat="45.48366" lon="3.70455">
        <ele>646</ele>
        <time>2000-01-01T00:31:20.000Z</time>
      </trkpt>
      <trkpt lat="45.48391" lon="3.70421">
        <ele>648</ele>
        <time>2000-01-01T00:31:30.000Z</time>
      </trkpt>
      <trkpt lat="45.48416" lon="3.70388">
        <ele>654</ele>
        <time>2000-01-01T00:31:40.000Z</time>
      </trkpt>
      <trkpt lat="45.48434" lon="3.70362">
        <ele>656</ele>
        <time>2000-01-01T00:31:50.000Z</time>
      </trkpt>
      <trkpt lat="45.48457" lon="3.70332">
        <ele>661</ele>
        <time>2000-01-01T00:32:00.000Z</time>
      </trkpt>
      <trkpt lat="45.48475" lon="3.70298">
        <ele>664</ele>
        <time>2000-01-01T00:32:10.000Z</time>
      </trkpt>
      <trkpt lat="45.48489" lon="3.7027">
        <ele>664</ele>
        <time>2000-01-01T00:32:20.000Z</time>
      </trkpt>
      <trkpt lat="45.48504" lon="3.70241">
        <ele>664</ele>
        <time>2000-01-01T00:32:30.000Z</time>
      </trkpt>
      <trkpt lat="45.48508" lon="3.70175">
        <ele>669</ele>
        <time>2000-01-01T00:32:40.000Z</time>
      </trkpt>
      <trkpt lat="45.48524" lon="3.70134">
        <ele>674</ele>
        <time>2000-01-01T00:32:50.000Z</time>
      </trkpt>
      <trkpt lat="45.48538" lon="3.70101">
        <ele>677</ele>
        <time>2000-01-01T00:33:00.000Z</time>
      </trkpt>
      <trkpt lat="45.48555" lon="3.7006">
        <ele>678</ele>
        <time>2000-01-01T00:33:10.000Z</time>
      </trkpt>
      <trkpt lat="45.48579" lon="3.70053">
        <ele>679</ele>
        <time>2000-01-01T00:33:20.000Z</time>
      </trkpt>
      <trkpt lat="45.48606" lon="3.70045">
        <ele>680</ele>
        <time>2000-01-01T00:33:30.000Z</time>
      </trkpt>
      <trkpt lat="45.48627" lon="3.70025">
        <ele>680</ele>
        <time>2000-01-01T00:33:40.000Z</time>
      </trkpt>
      <trkpt lat="45.48651" lon="3.70001">
        <ele>686</ele>
        <time>2000-01-01T00:33:50.000Z</time>
      </trkpt>
      <trkpt lat="45.48677" lon="3.69971">
        <ele>688</ele>
        <time>2000-01-01T00:34:00.000Z</time>
      </trkpt>
      <trkpt lat="45.48702" lon="3.69942">
        <ele>690</ele>
        <time>2000-01-01T00:34:10.000Z</time>
      </trkpt>
      <trkpt lat="45.48736" lon="3.69903">
        <ele>692</ele>
        <time>2000-01-01T00:34:20.000Z</time>
      </trkpt>
      <trkpt lat="45.48762" lon="3.69888">
        <ele>694</ele>
        <time>2000-01-01T00:34:30.000Z</time>
      </trkpt>
      <trkpt lat="45.48798" lon="3.69868">
        <ele>700</ele>
        <time>2000-01-01T00:34:40.000Z</time>
      </trkpt>
      <trkpt lat="45.4882" lon="3.69828">
        <ele>709</ele>
        <time>2000-01-01T00:34:50.000Z</time>
      </trkpt>
      <trkpt lat="45.48843" lon="3.69788">
        <ele>709</ele>
        <time>2000-01-01T00:35:00.000Z</time>
      </trkpt>
      <trkpt lat="45.48865" lon="3.69748">
        <ele>712</ele>
        <time>2000-01-01T00:35:10.000Z</time>
      </trkpt>
      <trkpt lat="45.48892" lon="3.69701">
        <ele>717</ele>
        <time>2000-01-01T00:35:20.000Z</time>
      </trkpt>
      <trkpt lat="45.4891" lon="3.69661">
        <ele>718</ele>
        <time>2000-01-01T00:35:30.000Z</time>
      </trkpt>
      <trkpt lat="45.48927" lon="3.69622">
        <ele>724</ele>
        <time>2000-01-01T00:35:40.000Z</time>
      </trkpt>
      <trkpt lat="45.4895" lon="3.6957">
        <ele>727</ele>
        <time>2000-01-01T00:35:50.000Z</time>
      </trkpt>
      <trkpt lat="45.48973" lon="3.69539">
        <ele>728</ele>
        <time>2000-01-01T00:36:00.000Z</time>
      </trkpt>
      <trkpt lat="45.48996" lon="3.69508">
        <ele>730</ele>
        <time>2000-01-01T00:36:10.000Z</time>
      </trkpt>
      <trkpt lat="45.49021" lon="3.69475">
        <ele>733</ele>
        <time>2000-01-01T00:36:20.000Z</time>
      </trkpt>
      <trkpt lat="45.49041" lon="3.69433">
        <ele>740</ele>
        <time>2000-01-01T00:36:30.000Z</time>
      </trkpt>
      <trkpt lat="45.49061" lon="3.6939">
        <ele>740</ele>
        <time>2000-01-01T00:36:40.000Z</time>
      </trkpt>
      <trkpt lat="45.49081" lon="3.69348">
        <ele>745</ele>
        <time>2000-01-01T00:36:50.000Z</time>
      </trkpt>
      <trkpt lat="45.49103" lon="3.693">
        <ele>745</ele>
        <time>2000-01-01T00:37:00.000Z</time>
      </trkpt>
      <trkpt lat="45.49133" lon="3.69273">
        <ele>745</ele>
        <time>2000-01-01T00:37:10.000Z</time>
      </trkpt>
      <trkpt lat="45.49162" lon="3.69247">
        <ele>744</ele>
        <time>2000-01-01T00:37:20.000Z</time>
      </trkpt>
      <trkpt lat="45.49186" lon="3.69226">
        <ele>743</ele>
        <time>2000-01-01T00:37:30.000Z</time>
      </trkpt>
      <trkpt lat="45.49218" lon="3.69197">
        <ele>745</ele>
        <time>2000-01-01T00:37:40.000Z</time>
      </trkpt>
      <trkpt lat="45.49224" lon="3.69247">
        <ele>747</ele>
        <time>2000-01-01T00:37:50.000Z</time>
      </trkpt>
      <trkpt lat="45.49231" lon="3.69297">
        <ele>747</ele>
        <time>2000-01-01T00:38:00.000Z</time>
      </trkpt>
      <trkpt lat="45.49237" lon="3.69347">
        <ele>747</ele>
        <time>2000-01-01T00:38:10.000Z</time>
      </trkpt>
      <trkpt lat="45.49244" lon="3.69399">
        <ele>736</ele>
        <time>2000-01-01T00:38:20.000Z</time>
      </trkpt>
      <trkpt lat="45.49242" lon="3.69436">
        <ele>735</ele>
        <time>2000-01-01T00:38:30.000Z</time>
      </trkpt>
      <trkpt lat="45.4924" lon="3.6948">
        <ele>735</ele>
        <time>2000-01-01T00:38:40.000Z</time>
      </trkpt>
      <trkpt lat="45.49281" lon="3.69491">
        <ele>734</ele>
        <time>2000-01-01T00:38:50.000Z</time>
      </trkpt>
      <trkpt lat="45.49322" lon="3.69501">
        <ele>733</ele>
        <time>2000-01-01T00:39:00.000Z</time>
      </trkpt>
      <trkpt lat="45.49364" lon="3.69512">
        <ele>732</ele>
        <time>2000-01-01T00:39:10.000Z</time>
      </trkpt>
      <trkpt lat="45.49405" lon="3.69522">
        <ele>729</ele>
        <time>2000-01-01T00:39:20.000Z</time>
      </trkpt>
      <trkpt lat="45.49446" lon="3.69533">
        <ele>723</ele>
        <time>2000-01-01T00:39:30.000Z</time>
      </trkpt>
      <trkpt lat="45.49487" lon="3.69544">
        <ele>718</ele>
        <time>2000-01-01T00:39:40.000Z</time>
      </trkpt>
      <trkpt lat="45.49529" lon="3.69554">
        <ele>710</ele>
        <time>2000-01-01T00:39:50.000Z</time>
      </trkpt>
      <trkpt lat="45.49557" lon="3.69562">
        <ele>707</ele>
        <time>2000-01-01T00:40:00.000Z</time>
      </trkpt>
      <trkpt lat="45.49605" lon="3.69574">
        <ele>703</ele>
        <time>2000-01-01T00:40:10.000Z</time>
      </trkpt>
      <trkpt lat="45.49595" lon="3.69611">
        <ele>700</ele>
        <time>2000-01-01T00:40:20.000Z</time>
      </trkpt>
      <trkpt lat="45.49616" lon="3.69625">
        <ele>699</ele>
        <time>2000-01-01T00:40:30.000Z</time>
      </trkpt>
      <trkpt lat="45.49659" lon="3.69635">
        <ele>699</ele>
        <time>2000-01-01T00:40:40.000Z</time>
      </trkpt>
      <trkpt lat="45.49687" lon="3.69615">
        <ele>700</ele>
        <time>2000-01-01T00:40:50.000Z</time>
      </trkpt>
      <trkpt lat="45.49711" lon="3.69598">
        <ele>702</ele>
        <time>2000-01-01T00:41:00.000Z</time>
      </trkpt>
      <trkpt lat="45.49741" lon="3.69577">
        <ele>705</ele>
        <time>2000-01-01T00:41:10.000Z</time>
      </trkpt>
      <trkpt lat="45.4978" lon="3.69541">
        <ele>708</ele>
        <time>2000-01-01T00:41:20.000Z</time>
      </trkpt>
      <trkpt lat="45.49803" lon="3.69515">
        <ele>711</ele>
        <time>2000-01-01T00:41:30.000Z</time>
      </trkpt>
      <trkpt lat="45.49822" lon="3.69493">
        <ele>716</ele>
        <time>2000-01-01T00:41:40.000Z</time>
      </trkpt>
      <trkpt lat="45.49843" lon="3.6947">
        <ele>716</ele>
        <time>2000-01-01T00:41:50.000Z</time>
      </trkpt>
      <trkpt lat="45.49865" lon="3.69434">
        <ele>720</ele>
        <time>2000-01-01T00:42:00.000Z</time>
      </trkpt>
      <trkpt lat="45.49896" lon="3.69439">
        <ele>720</ele>
        <time>2000-01-01T00:42:10.000Z</time>
      </trkpt>
      <trkpt lat="45.49918" lon="3.6948">
        <ele>720</ele>
        <time>2000-01-01T00:42:20.000Z</time>
      </trkpt>
      <trkpt lat="45.49926" lon="3.69528">
        <ele>715</ele>
        <time>2000-01-01T00:42:30.000Z</time>
      </trkpt>
      <trkpt lat="45.49935" lon="3.69571">
        <ele>710</ele>
        <time>2000-01-01T00:42:40.000Z</time>
      </trkpt>
      <trkpt lat="45.49945" lon="3.69614">
        <ele>704</ele>
        <time>2000-01-01T00:42:50.000Z</time>
      </trkpt>
      <trkpt lat="45.49955" lon="3.6966">
        <ele>703</ele>
        <time>2000-01-01T00:43:00.000Z</time>
      </trkpt>
      <trkpt lat="45.4998" lon="3.69716">
        <ele>703</ele>
        <time>2000-01-01T00:43:10.000Z</time>
      </trkpt>
      <trkpt lat="45.50006" lon="3.69738">
        <ele>706</ele>
        <time>2000-01-01T00:43:20.000Z</time>
      </trkpt>
      <trkpt lat="45.50027" lon="3.69756">
        <ele>703</ele>
        <time>2000-01-01T00:43:30.000Z</time>
      </trkpt>
      <trkpt lat="45.50051" lon="3.69776">
        <ele>701</ele>
        <time>2000-01-01T00:43:40.000Z</time>
      </trkpt>
      <trkpt lat="45.50059" lon="3.6981">
        <ele>701</ele>
        <time>2000-01-01T00:43:50.000Z</time>
      </trkpt>
      <trkpt lat="45.50067" lon="3.69847">
        <ele>701</ele>
        <time>2000-01-01T00:44:00.000Z</time>
      </trkpt>
      <trkpt lat="45.50088" lon="3.69868">
        <ele>701</ele>
        <time>2000-01-01T00:44:10.000Z</time>
      </trkpt>
      <trkpt lat="45.50112" lon="3.69894">
        <ele>698</ele>
        <time>2000-01-01T00:44:20.000Z</time>
      </trkpt>
      <trkpt lat="45.50136" lon="3.69917">
        <ele>696</ele>
        <time>2000-01-01T00:44:30.000Z</time>
      </trkpt>
      <trkpt lat="45.50173" lon="3.69952">
        <ele>689</ele>
        <time>2000-01-01T00:44:40.000Z</time>
      </trkpt>
      <trkpt lat="45.50187" lon="3.69996">
        <ele>685</ele>
        <time>2000-01-01T00:44:50.000Z</time>
      </trkpt>
      <trkpt lat="45.50201" lon="3.7004">
        <ele>678</ele>
        <time>2000-01-01T00:45:00.000Z</time>
      </trkpt>
      <trkpt lat="45.50212" lon="3.70073">
        <ele>668</ele>
        <time>2000-01-01T00:45:10.000Z</time>
      </trkpt>
      <trkpt lat="45.50224" lon="3.70111">
        <ele>665</ele>
        <time>2000-01-01T00:45:20.000Z</time>
      </trkpt>
      <trkpt lat="45.50242" lon="3.70145">
        <ele>661</ele>
        <time>2000-01-01T00:45:30.000Z</time>
      </trkpt>
      <trkpt lat="45.50239" lon="3.70208">
        <ele>657</ele>
        <time>2000-01-01T00:45:40.000Z</time>
      </trkpt>
      <trkpt lat="45.50245" lon="3.70252">
        <ele>657</ele>
        <time>2000-01-01T00:45:50.000Z</time>
      </trkpt>
      <trkpt lat="45.50251" lon="3.70297">
        <ele>657</ele>
        <time>2000-01-01T00:46:00.000Z</time>
      </trkpt>
      <trkpt lat="45.50258" lon="3.70343">
        <ele>655</ele>
        <time>2000-01-01T00:46:10.000Z</time>
      </trkpt>
      <trkpt lat="45.50249" lon="3.70373">
        <ele>654</ele>
        <time>2000-01-01T00:46:20.000Z</time>
      </trkpt>
      <trkpt lat="45.50254" lon="3.7041">
        <ele>654</ele>
        <time>2000-01-01T00:46:30.000Z</time>
      </trkpt>
      <trkpt lat="45.50261" lon="3.70459">
        <ele>659</ele>
        <time>2000-01-01T00:46:40.000Z</time>
      </trkpt>
      <trkpt lat="45.50285" lon="3.7046">
        <ele>663</ele>
        <time>2000-01-01T00:46:50.000Z</time>
      </trkpt>
      <trkpt lat="45.50309" lon="3.70462">
        <ele>668</ele>
        <time>2000-01-01T00:47:00.000Z</time>
      </trkpt>
      <trkpt lat="45.50331" lon="3.70473">
        <ele>678</ele>
        <time>2000-01-01T00:47:10.000Z</time>
      </trkpt>
      <trkpt lat="45.50354" lon="3.70484">
        <ele>683</ele>
        <time>2000-01-01T00:47:20.000Z</time>
      </trkpt>
      <trkpt lat="45.50374" lon="3.70465">
        <ele>683</ele>
        <time>2000-01-01T00:47:30.000Z</time>
      </trkpt>
      <trkpt lat="45.50396" lon="3.70444">
        <ele>681</ele>
        <time>2000-01-01T00:47:40.000Z</time>
      </trkpt>
      <trkpt lat="45.50432" lon="3.70431">
        <ele>681</ele>
        <time>2000-01-01T00:47:50.000Z</time>
      </trkpt>
      <trkpt lat="45.50468" lon="3.70418">
        <ele>681</ele>
        <time>2000-01-01T00:48:00.000Z</time>
      </trkpt>
      <trkpt lat="45.50504" lon="3.70404">
        <ele>686</ele>
        <time>2000-01-01T00:48:10.000Z</time>
      </trkpt>
      <trkpt lat="45.50531" lon="3.70394">
        <ele>690</ele>
        <time>2000-01-01T00:48:20.000Z</time>
      </trkpt>
      <trkpt lat="45.50568" lon="3.70381">
        <ele>696</ele>
        <time>2000-01-01T00:48:30.000Z</time>
      </trkpt>
      <trkpt lat="45.50591" lon="3.70397">
        <ele>693</ele>
        <time>2000-01-01T00:48:40.000Z</time>
      </trkpt>
      <trkpt lat="45.5062" lon="3.70416">
        <ele>690</ele>
        <time>2000-01-01T00:48:50.000Z</time>
      </trkpt>
      <trkpt lat="45.50649" lon="3.70421">
        <ele>688</ele>
        <time>2000-01-01T00:49:00.000Z</time>
      </trkpt>
      <trkpt lat="45.50694" lon="3.70428">
        <ele>688</ele>
        <time>2000-01-01T00:49:10.000Z</time>
      </trkpt>
      <trkpt lat="45.50723" lon="3.70434">
        <ele>689</ele>
        <time>2000-01-01T00:49:20.000Z</time>
      </trkpt>
      <trkpt lat="45.50768" lon="3.70444">
        <ele>689</ele>
        <time>2000-01-01T00:49:30.000Z</time>
      </trkpt>
      <trkpt lat="45.50808" lon="3.70463">
        <ele>689</ele>
        <time>2000-01-01T00:49:40.000Z</time>
      </trkpt>
      <trkpt lat="45.50835" lon="3.70451">
        <ele>687</ele>
        <time>2000-01-01T00:49:50.000Z</time>
      </trkpt>
      <trkpt lat="45.5086" lon="3.70407">
        <ele>685</ele>
        <time>2000-01-01T00:50:00.000Z</time>
      </trkpt>
      <trkpt lat="45.50886" lon="3.70394">
        <ele>683</ele>
        <time>2000-01-01T00:50:10.000Z</time>
      </trkpt>
      <trkpt lat="45.50923" lon="3.70376">
        <ele>681</ele>
        <time>2000-01-01T00:50:20.000Z</time>
      </trkpt>
      <trkpt lat="45.50942" lon="3.70426">
        <ele>679</ele>
        <time>2000-01-01T00:50:30.000Z</time>
      </trkpt>
      <trkpt lat="45.50964" lon="3.70444">
        <ele>677</ele>
        <time>2000-01-01T00:50:40.000Z</time>
      </trkpt>
      <trkpt lat="45.50989" lon="3.70465">
        <ele>669</ele>
        <time>2000-01-01T00:50:50.000Z</time>
      </trkpt>
      <trkpt lat="45.50997" lon="3.7051">
        <ele>666</ele>
        <time>2000-01-01T00:51:00.000Z</time>
      </trkpt>
      <trkpt lat="45.50995" lon="3.70564">
        <ele>660</ele>
        <time>2000-01-01T00:51:10.000Z</time>
      </trkpt>
      <trkpt lat="45.51015" lon="3.70599">
        <ele>660</ele>
        <time>2000-01-01T00:51:20.000Z</time>
      </trkpt>
      <trkpt lat="45.51045" lon="3.70618">
        <ele>660</ele>
        <time>2000-01-01T00:51:30.000Z</time>
      </trkpt>
      <trkpt lat="45.51089" lon="3.70641">
        <ele>662</ele>
        <time>2000-01-01T00:51:40.000Z</time>
      </trkpt>
      <trkpt lat="45.51107" lon="3.70664">
        <ele>664</ele>
        <time>2000-01-01T00:51:50.000Z</time>
      </trkpt>
      <trkpt lat="45.51125" lon="3.70688">
        <ele>664</ele>
        <time>2000-01-01T00:52:00.000Z</time>
      </trkpt>
      <trkpt lat="45.5114" lon="3.70717">
        <ele>657</ele>
        <time>2000-01-01T00:52:10.000Z</time>
      </trkpt>
      <trkpt lat="45.51157" lon="3.70749">
        <ele>657</ele>
        <time>2000-01-01T00:52:20.000Z</time>
      </trkpt>
      <trkpt lat="45.51184" lon="3.70763">
        <ele>657</ele>
        <time>2000-01-01T00:52:30.000Z</time>
      </trkpt>
      <trkpt lat="45.51228" lon="3.70786">
        <ele>660</ele>
        <time>2000-01-01T00:52:40.000Z</time>
      </trkpt>
      <trkpt lat="45.5126" lon="3.70788">
        <ele>660</ele>
        <time>2000-01-01T00:52:50.000Z</time>
      </trkpt>
      <trkpt lat="45.51284" lon="3.70795">
        <ele>657</ele>
        <time>2000-01-01T00:53:00.000Z</time>
      </trkpt>
      <trkpt lat="45.51312" lon="3.70802">
        <ele>655</ele>
        <time>2000-01-01T00:53:10.000Z</time>
      </trkpt>
      <trkpt lat="45.51342" lon="3.70803">
        <ele>653</ele>
        <time>2000-01-01T00:53:20.000Z</time>
      </trkpt>
      <trkpt lat="45.51366" lon="3.70804">
        <ele>648</ele>
        <time>2000-01-01T00:53:30.000Z</time>
      </trkpt>
      <trkpt lat="45.51392" lon="3.70805">
        <ele>643</ele>
        <time>2000-01-01T00:53:40.000Z</time>
      </trkpt>
      <trkpt lat="45.5141" lon="3.70804">
        <ele>638.4</ele>
        <time>2000-01-01T00:53:50.000Z</time>
      </trkpt>
      <trkpt lat="45.51434" lon="3.70914">
        <ele>639</ele>
        <time>2000-01-01T00:54:00.000Z</time>
      </trkpt>
      <trkpt lat="45.51418" lon="3.70913">
        <ele>629.8</ele>
        <time>2000-01-01T00:54:10.000Z</time>
      </trkpt>
      <trkpt lat="45.51401" lon="3.70925">
        <ele>638</ele>
        <time>2000-01-01T00:54:20.000Z</time>
      </trkpt>
      <trkpt lat="45.51382" lon="3.70944">
        <ele>638</ele>
        <time>2000-01-01T00:54:30.000Z</time>
      </trkpt>
      <trkpt lat="45.51361" lon="3.70943">
        <ele>639</ele>
        <time>2000-01-01T00:54:40.000Z</time>
      </trkpt>
      <trkpt lat="45.51368" lon="3.70984">
        <ele>641</ele>
        <time>2000-01-01T00:54:50.000Z</time>
      </trkpt>
      <trkpt lat="45.51374" lon="3.71018">
        <ele>644</ele>
        <time>2000-01-01T00:55:00.000Z</time>
      </trkpt>
      <trkpt lat="45.51381" lon="3.71056">
        <ele>647</ele>
        <time>2000-01-01T00:55:10.000Z</time>
      </trkpt>
      <trkpt lat="45.51399" lon="3.71036">
        <ele>650</ele>
        <time>2000-01-01T00:55:20.000Z</time>
      </trkpt>
      <trkpt lat="45.51432" lon="3.71027">
        <ele>648</ele>
        <time>2000-01-01T00:55:30.000Z</time>
      </trkpt>
      <trkpt lat="45.51465" lon="3.71018">
        <ele>647</ele>
        <time>2000-01-01T00:55:40.000Z</time>
      </trkpt>
      <trkpt lat="45.51488" lon="3.71011">
        <ele>647</ele>
        <time>2000-01-01T00:55:50.000Z</time>
      </trkpt>
      <trkpt lat="45.51512" lon="3.71005">
        <ele>650</ele>
        <time>2000-01-01T00:56:00.000Z</time>
      </trkpt>
      <trkpt lat="45.51528" lon="3.71029">
        <ele>657</ele>
        <time>2000-01-01T00:56:10.000Z</time>
      </trkpt>
      <trkpt lat="45.51561" lon="3.71025">
        <ele>662</ele>
        <time>2000-01-01T00:56:20.000Z</time>
      </trkpt>
      <trkpt lat="45.51595" lon="3.7102">
        <ele>663</ele>
        <time>2000-01-01T00:56:30.000Z</time>
      </trkpt>
      <trkpt lat="45.51619" lon="3.71017">
        <ele>665</ele>
        <time>2000-01-01T00:56:40.000Z</time>
      </trkpt>
      <trkpt lat="45.51644" lon="3.71014">
        <ele>669</ele>
        <time>2000-01-01T00:56:50.000Z</time>
      </trkpt>
      <trkpt lat="45.51666" lon="3.71023">
        <ele>674</ele>
        <time>2000-01-01T00:57:00.000Z</time>
      </trkpt>
      <trkpt lat="45.51683" lon="3.71054">
        <ele>675</ele>
        <time>2000-01-01T00:57:10.000Z</time>
      </trkpt>
      <trkpt lat="45.51716" lon="3.71099">
        <ele>687</ele>
        <time>2000-01-01T00:57:20.000Z</time>
      </trkpt>
      <trkpt lat="45.51741" lon="3.71113">
        <ele>686</ele>
        <time>2000-01-01T00:57:30.000Z</time>
      </trkpt>
      <trkpt lat="45.51774" lon="3.71132">
        <ele>688</ele>
        <time>2000-01-01T00:57:40.000Z</time>
      </trkpt>
      <trkpt lat="45.51805" lon="3.71146">
        <ele>689</ele>
        <time>2000-01-01T00:57:50.000Z</time>
      </trkpt>
      <trkpt lat="45.51836" lon="3.7116">
        <ele>690</ele>
        <time>2000-01-01T00:58:00.000Z</time>
      </trkpt>
      <trkpt lat="45.51876" lon="3.71178">
        <ele>696</ele>
        <time>2000-01-01T00:58:10.000Z</time>
      </trkpt>
      <trkpt lat="45.51905" lon="3.71171">
        <ele>694</ele>
        <time>2000-01-01T00:58:20.000Z</time>
      </trkpt>
      <trkpt lat="45.5193" lon="3.71164">
        <ele>693</ele>
        <time>2000-01-01T00:58:30.000Z</time>
      </trkpt>
      <trkpt lat="45.51956" lon="3.71158">
        <ele>687</ele>
        <time>2000-01-01T00:58:40.000Z</time>
      </trkpt>
      <trkpt lat="45.5198" lon="3.71161">
        <ele>686</ele>
        <time>2000-01-01T00:58:50.000Z</time>
      </trkpt>
      <trkpt lat="45.52007" lon="3.71164">
        <ele>687</ele>
        <time>2000-01-01T00:59:00.000Z</time>
      </trkpt>
      <trkpt lat="45.52029" lon="3.71138">
        <ele>685</ele>
        <time>2000-01-01T00:59:10.000Z</time>
      </trkpt>
      <trkpt lat="45.52052" lon="3.71152">
        <ele>683</ele>
        <time>2000-01-01T00:59:20.000Z</time>
      </trkpt>
      <trkpt lat="45.52067" lon="3.71171">
        <ele>676</ele>
        <time>2000-01-01T00:59:30.000Z</time>
      </trkpt>
      <trkpt lat="45.52091" lon="3.71164">
        <ele>673</ele>
        <time>2000-01-01T00:59:40.000Z</time>
      </trkpt>
      <trkpt lat="45.52116" lon="3.71156">
        <ele>672</ele>
        <time>2000-01-01T00:59:50.000Z</time>
      </trkpt>
      <trkpt lat="45.5215" lon="3.71112">
        <ele>672</ele>
        <time>2000-01-01T01:00:00.000Z</time>
      </trkpt>
      <trkpt lat="45.5216" lon="3.71077">
        <ele>676</ele>
        <time>2000-01-01T01:00:10.000Z</time>
      </trkpt>
      <trkpt lat="45.52173" lon="3.71031">
        <ele>676</ele>
        <time>2000-01-01T01:00:20.000Z</time>
      </trkpt>
      <trkpt lat="45.52182" lon="3.7102">
        <ele>660</ele>
        <time>2000-01-01T01:00:30.000Z</time>
      </trkpt>
      <trkpt lat="45.52193" lon="3.7103">
        <ele>665</ele>
        <time>2000-01-01T01:00:40.000Z</time>
      </trkpt>
      <trkpt lat="45.52201" lon="3.71079">
        <ele>665</ele>
        <time>2000-01-01T01:00:50.000Z</time>
      </trkpt>
      <trkpt lat="45.52207" lon="3.71116">
        <ele>665</ele>
        <time>2000-01-01T01:01:00.000Z</time>
      </trkpt>
      <trkpt lat="45.52216" lon="3.71165">
        <ele>665</ele>
        <time>2000-01-01T01:01:10.000Z</time>
      </trkpt>
      <trkpt lat="45.52223" lon="3.71197">
        <ele>665</ele>
        <time>2000-01-01T01:01:20.000Z</time>
      </trkpt>
      <trkpt lat="45.5223" lon="3.7123">
        <ele>665</ele>
        <time>2000-01-01T01:01:30.000Z</time>
      </trkpt>
      <trkpt lat="45.52249" lon="3.71258">
        <ele>665</ele>
        <time>2000-01-01T01:01:40.000Z</time>
      </trkpt>
      <trkpt lat="45.52278" lon="3.71268">
        <ele>665</ele>
        <time>2000-01-01T01:01:50.000Z</time>
      </trkpt>
      <trkpt lat="45.52303" lon="3.71276">
        <ele>660</ele>
        <time>2000-01-01T01:02:00.000Z</time>
      </trkpt>
      <trkpt lat="45.5233" lon="3.71285">
        <ele>654</ele>
        <time>2000-01-01T01:02:10.000Z</time>
      </trkpt>
      <trkpt lat="45.52362" lon="3.71291">
        <ele>647</ele>
        <time>2000-01-01T01:02:20.000Z</time>
      </trkpt>
      <trkpt lat="45.52394" lon="3.71297">
        <ele>647</ele>
        <time>2000-01-01T01:02:30.000Z</time>
      </trkpt>
      <trkpt lat="45.52433" lon="3.71305">
        <ele>648</ele>
        <time>2000-01-01T01:02:40.000Z</time>
      </trkpt>
      <trkpt lat="45.52463" lon="3.7131">
        <ele>649</ele>
        <time>2000-01-01T01:02:50.000Z</time>
      </trkpt>
      <trkpt lat="45.52488" lon="3.71314">
        <ele>649</ele>
        <time>2000-01-01T01:03:00.000Z</time>
      </trkpt>
      <trkpt lat="45.52517" lon="3.71318">
        <ele>648</ele>
        <time>2000-01-01T01:03:10.000Z</time>
      </trkpt>
      <trkpt lat="45.52539" lon="3.71296">
        <ele>649</ele>
        <time>2000-01-01T01:03:20.000Z</time>
      </trkpt>
      <trkpt lat="45.5257" lon="3.71265">
        <ele>647</ele>
        <time>2000-01-01T01:03:30.000Z</time>
      </trkpt>
      <trkpt lat="45.52589" lon="3.71239">
        <ele>650</ele>
        <time>2000-01-01T01:03:40.000Z</time>
      </trkpt>
      <trkpt lat="45.52612" lon="3.71206">
        <ele>648</ele>
        <time>2000-01-01T01:03:50.000Z</time>
      </trkpt>
      <trkpt lat="45.52641" lon="3.7121">
        <ele>646</ele>
        <time>2000-01-01T01:04:00.000Z</time>
      </trkpt>
      <trkpt lat="45.52685" lon="3.71217">
        <ele>645</ele>
        <time>2000-01-01T01:04:10.000Z</time>
      </trkpt>
      <trkpt lat="45.5269" lon="3.71244">
        <ele>638</ele>
        <time>2000-01-01T01:04:20.000Z</time>
      </trkpt>
      <trkpt lat="45.52684" lon="3.71264">
        <ele>629.4</ele>
        <time>2000-01-01T01:04:30.000Z</time>
      </trkpt>
      <trkpt lat="45.52675" lon="3.71306">
        <ele>636</ele>
        <time>2000-01-01T01:04:40.000Z</time>
      </trkpt>
      <trkpt lat="45.52686" lon="3.7132">
        <ele>633.3</ele>
        <time>2000-01-01T01:04:50.000Z</time>
      </trkpt>
      <trkpt lat="45.52799" lon="3.71331">
        <ele>637</ele>
        <time>2000-01-01T01:05:00.000Z</time>
      </trkpt>
      <trkpt lat="45.52827" lon="3.71338">
        <ele>638</ele>
        <time>2000-01-01T01:05:10.000Z</time>
      </trkpt>
      <trkpt lat="45.52872" lon="3.71349">
        <ele>638</ele>
        <time>2000-01-01T01:05:20.000Z</time>
      </trkpt>
      <trkpt lat="45.52904" lon="3.71351">
        <ele>638</ele>
        <time>2000-01-01T01:05:30.000Z</time>
      </trkpt>
      <trkpt lat="45.52935" lon="3.71352">
        <ele>638</ele>
        <time>2000-01-01T01:05:40.000Z</time>
      </trkpt>
      <trkpt lat="45.52969" lon="3.71354">
        <ele>638</ele>
        <time>2000-01-01T01:05:50.000Z</time>
      </trkpt>
      <trkpt lat="45.52996" lon="3.71363">
        <ele>637</ele>
        <time>2000-01-01T01:06:00.000Z</time>
      </trkpt>
      <trkpt lat="45.53035" lon="3.71377">
        <ele>636</ele>
        <time>2000-01-01T01:06:10.000Z</time>
      </trkpt>
      <trkpt lat="45.53062" lon="3.7138">
        <ele>634</ele>
        <time>2000-01-01T01:06:20.000Z</time>
      </trkpt>
      <trkpt lat="45.53099" lon="3.71385">
        <ele>634</ele>
        <time>2000-01-01T01:06:30.000Z</time>
      </trkpt>
      <trkpt lat="45.53102" lon="3.71407">
        <ele>638.7</ele>
        <time>2000-01-01T01:06:40.000Z</time>
      </trkpt>
      <trkpt lat="45.5311" lon="3.71421">
        <ele>631</ele>
        <time>2000-01-01T01:06:50.000Z</time>
      </trkpt>
      <trkpt lat="45.53116" lon="3.71441">
        <ele>632.8</ele>
        <time>2000-01-01T01:07:00.000Z</time>
      </trkpt>
      <trkpt lat="45.53114" lon="3.71479">
        <ele>622</ele>
        <time>2000-01-01T01:07:10.000Z</time>
      </trkpt>
      <trkpt lat="45.53124" lon="3.71511">
        <ele>616</ele>
        <time>2000-01-01T01:07:20.000Z</time>
      </trkpt>
      <trkpt lat="45.53135" lon="3.71545">
        <ele>611</ele>
        <time>2000-01-01T01:07:30.000Z</time>
      </trkpt>
      <trkpt lat="45.53153" lon="3.71596">
        <ele>607</ele>
        <time>2000-01-01T01:07:40.000Z</time>
      </trkpt>
      <trkpt lat="45.53177" lon="3.7163">
        <ele>606</ele>
        <time>2000-01-01T01:07:50.000Z</time>
      </trkpt>
      <trkpt lat="45.53194" lon="3.71641">
        <ele>606.8</ele>
        <time>2000-01-01T01:08:00.000Z</time>
      </trkpt>
      <trkpt lat="45.53244" lon="3.71658">
        <ele>603</ele>
        <time>2000-01-01T01:08:10.000Z</time>
      </trkpt>
      <trkpt lat="45.53263" lon="3.71652">
        <ele>603</ele>
        <time>2000-01-01T01:08:20.000Z</time>
      </trkpt>
      <trkpt lat="45.53277" lon="3.7164">
        <ele>606</ele>
        <time>2000-01-01T01:08:30.000Z</time>
      </trkpt>
      <trkpt lat="45.53285" lon="3.71623">
        <ele>603</ele>
        <time>2000-01-01T01:08:40.000Z</time>
      </trkpt>
      <trkpt lat="45.53295" lon="3.71613">
        <ele>601.4</ele>
        <time>2000-01-01T01:08:50.000Z</time>
      </trkpt>
      <trkpt lat="45.5332" lon="3.71627">
        <ele>602</ele>
        <time>2000-01-01T01:09:00.000Z</time>
      </trkpt>
      <trkpt lat="45.53339" lon="3.71641">
        <ele>599</ele>
        <time>2000-01-01T01:09:10.000Z</time>
      </trkpt>
      <trkpt lat="45.53376" lon="3.71657">
        <ele>593</ele>
        <time>2000-01-01T01:09:20.000Z</time>
      </trkpt>
      <trkpt lat="45.53421" lon="3.71675">
        <ele>582</ele>
        <time>2000-01-01T01:09:30.000Z</time>
      </trkpt>
      <trkpt lat="45.53434" lon="3.71691">
        <ele>574</ele>
        <time>2000-01-01T01:09:40.000Z</time>
      </trkpt>
      <trkpt lat="45.53446" lon="3.71723">
        <ele>578</ele>
        <time>2000-01-01T01:09:50.000Z</time>
      </trkpt>
      <trkpt lat="45.53453" lon="3.71756">
        <ele>577</ele>
        <time>2000-01-01T01:10:00.000Z</time>
      </trkpt>
      <trkpt lat="45.5346" lon="3.71791">
        <ele>578</ele>
        <time>2000-01-01T01:10:10.000Z</time>
      </trkpt>
      <trkpt lat="45.5347" lon="3.71854">
        <ele>580</ele>
        <time>2000-01-01T01:10:20.000Z</time>
      </trkpt>
      <trkpt lat="45.53475" lon="3.71902">
        <ele>582</ele>
        <time>2000-01-01T01:10:30.000Z</time>
      </trkpt>
      <trkpt lat="45.5348" lon="3.7195">
        <ele>582</ele>
        <time>2000-01-01T01:10:40.000Z</time>
      </trkpt>
      <trkpt lat="45.53484" lon="3.71986">
        <ele>574</ele>
        <time>2000-01-01T01:10:50.000Z</time>
      </trkpt>
      <trkpt lat="45.53489" lon="3.72029">
        <ele>566</ele>
        <time>2000-01-01T01:11:00.000Z</time>
      </trkpt>
      <trkpt lat="45.53489" lon="3.72063">
        <ele>561</ele>
        <time>2000-01-01T01:11:10.000Z</time>
      </trkpt>
      <trkpt lat="45.5349" lon="3.72099">
        <ele>558</ele>
        <time>2000-01-01T01:11:20.000Z</time>
      </trkpt>
      <trkpt lat="45.53511" lon="3.72087">
        <ele>557</ele>
        <time>2000-01-01T01:11:30.000Z</time>
      </trkpt>
      <trkpt lat="45.53522" lon="3.72091">
        <ele>553.3</ele>
        <time>2000-01-01T01:11:40.000Z</time>
      </trkpt>
      <trkpt lat="45.53552" lon="3.72156">
        <ele>556</ele>
        <time>2000-01-01T01:11:50.000Z</time>
      </trkpt>
      <trkpt lat="45.53565" lon="3.72183">
        <ele>553</ele>
        <time>2000-01-01T01:12:00.000Z</time>
      </trkpt>
      <trkpt lat="45.536" lon="3.72211">
        <ele>552</ele>
        <time>2000-01-01T01:12:10.000Z</time>
      </trkpt>
      <trkpt lat="45.53624" lon="3.72222">
        <ele>552</ele>
        <time>2000-01-01T01:12:20.000Z</time>
      </trkpt>
      <trkpt lat="45.53653" lon="3.72235">
        <ele>556</ele>
        <time>2000-01-01T01:12:30.000Z</time>
      </trkpt>
      <trkpt lat="45.5368" lon="3.72236">
        <ele>556</ele>
        <time>2000-01-01T01:12:40.000Z</time>
      </trkpt>
      <trkpt lat="45.53717" lon="3.72238">
        <ele>556</ele>
        <time>2000-01-01T01:12:50.000Z</time>
      </trkpt>
      <trkpt lat="45.53738" lon="3.72225">
        <ele>556</ele>
        <time>2000-01-01T01:13:00.000Z</time>
      </trkpt>
      <trkpt lat="45.53743" lon="3.72216">
        <ele>570</ele>
        <time>2000-01-01T01:13:10.000Z</time>
      </trkpt>
      <trkpt lat="45.5376" lon="3.72212">
        <ele>560</ele>
        <time>2000-01-01T01:13:20.000Z</time>
      </trkpt>
      <trkpt lat="45.5378" lon="3.72181">
        <ele>560</ele>
        <time>2000-01-01T01:13:30.000Z</time>
      </trkpt>
      <trkpt lat="45.53806" lon="3.72194">
        <ele>560</ele>
        <time>2000-01-01T01:13:40.000Z</time>
      </trkpt>
      <trkpt lat="45.53842" lon="3.72213">
        <ele>560</ele>
        <time>2000-01-01T01:13:50.000Z</time>
      </trkpt>
      <trkpt lat="45.5388" lon="3.72245">
        <ele>558</ele>
        <time>2000-01-01T01:14:00.000Z</time>
      </trkpt>
      <trkpt lat="45.5389" lon="3.72276">
        <ele>556</ele>
        <time>2000-01-01T01:14:10.000Z</time>
      </trkpt>
      <trkpt lat="45.53901" lon="3.72307">
        <ele>555</ele>
        <time>2000-01-01T01:14:20.000Z</time>
      </trkpt>
      <trkpt lat="45.53914" lon="3.72363">
        <ele>548</ele>
        <time>2000-01-01T01:14:30.000Z</time>
      </trkpt>
      <trkpt lat="45.53933" lon="3.72394">
        <ele>543</ele>
        <time>2000-01-01T01:14:40.000Z</time>
      </trkpt>
      <trkpt lat="45.53964" lon="3.72442">
        <ele>533</ele>
        <time>2000-01-01T01:14:50.000Z</time>
      </trkpt>
      <trkpt lat="45.53961" lon="3.72483">
        <ele>533</ele>
        <time>2000-01-01T01:15:00.000Z</time>
      </trkpt>
      <trkpt lat="45.53956" lon="3.7255">
        <ele>528</ele>
        <time>2000-01-01T01:15:10.000Z</time>
      </trkpt>
      <trkpt lat="45.53979" lon="3.7257">
        <ele>528</ele>
        <time>2000-01-01T01:15:20.000Z</time>
      </trkpt>
      <trkpt lat="45.54011" lon="3.72597">
        <ele>525</ele>
        <time>2000-01-01T01:15:30.000Z</time>
      </trkpt>
      <trkpt lat="45.53995" lon="3.72629">
        <ele>525</ele>
        <time>2000-01-01T01:15:40.000Z</time>
      </trkpt>
      <trkpt lat="45.53973" lon="3.72673">
        <ele>523</ele>
        <time>2000-01-01T01:15:50.000Z</time>
      </trkpt>
      <trkpt lat="45.53937" lon="3.72673">
        <ele>522</ele>
        <time>2000-01-01T01:16:00.000Z</time>
      </trkpt>
      <trkpt lat="45.53909" lon="3.72666">
        <ele>522</ele>
        <time>2000-01-01T01:16:10.000Z</time>
      </trkpt>
      <trkpt lat="45.53892" lon="3.72654">
        <ele>522</ele>
        <time>2000-01-01T01:16:20.000Z</time>
      </trkpt>
      <trkpt lat="45.53884" lon="3.72691">
        <ele>522</ele>
        <time>2000-01-01T01:16:30.000Z</time>
      </trkpt>
      <trkpt lat="45.53884" lon="3.72736">
        <ele>521</ele>
        <time>2000-01-01T01:16:40.000Z</time>
      </trkpt>
      <trkpt lat="45.53883" lon="3.72781">
        <ele>521</ele>
        <time>2000-01-01T01:16:50.000Z</time>
      </trkpt>
      <trkpt lat="45.53883" lon="3.72826">
        <ele>521</ele>
        <time>2000-01-01T01:17:00.000Z</time>
      </trkpt>
      <trkpt lat="45.53858" lon="3.72836">
        <ele>520</ele>
        <time>2000-01-01T01:17:10.000Z</time>
      </trkpt>
      <trkpt lat="45.53853" lon="3.72871">
        <ele>520</ele>
        <time>2000-01-01T01:17:20.000Z</time>
      </trkpt>
      <trkpt lat="45.53851" lon="3.72916">
        <ele>520</ele>
        <time>2000-01-01T01:17:30.000Z</time>
      </trkpt>
      <trkpt lat="45.53849" lon="3.72954">
        <ele>519</ele>
        <time>2000-01-01T01:17:40.000Z</time>
      </trkpt>
      <trkpt lat="45.53847" lon="3.73004">
        <ele>520</ele>
        <time>2000-01-01T01:17:50.000Z</time>
      </trkpt>
      <trkpt lat="45.53875" lon="3.73007">
        <ele>522</ele>
        <time>2000-01-01T01:18:00.000Z</time>
      </trkpt>
      <trkpt lat="45.53915" lon="3.73011">
        <ele>524</ele>
        <time>2000-01-01T01:18:10.000Z</time>
      </trkpt>
      <trkpt lat="45.53944" lon="3.73018">
        <ele>527</ele>
        <time>2000-01-01T01:18:20.000Z</time>
      </trkpt>
      <trkpt lat="45.53969" lon="3.73023">
        <ele>526</ele>
        <time>2000-01-01T01:18:30.000Z</time>
      </trkpt>
      <trkpt lat="45.53995" lon="3.73029">
        <ele>525</ele>
        <time>2000-01-01T01:18:40.000Z</time>
      </trkpt>
      <trkpt lat="45.54019" lon="3.73054">
        <ele>525</ele>
        <time>2000-01-01T01:18:50.000Z</time>
      </trkpt>
      <trkpt lat="45.54038" lon="3.73075">
        <ele>521</ele>
        <time>2000-01-01T01:19:00.000Z</time>
      </trkpt>
      <trkpt lat="45.54059" lon="3.73097">
        <ele>521</ele>
        <time>2000-01-01T01:19:10.000Z</time>
      </trkpt>
      <trkpt lat="45.54079" lon="3.7313">
        <ele>520</ele>
        <time>2000-01-01T01:19:20.000Z</time>
      </trkpt>
      <trkpt lat="45.54096" lon="3.73157">
        <ele>520</ele>
        <time>2000-01-01T01:19:30.000Z</time>
      </trkpt>
      <trkpt lat="45.54117" lon="3.7319">
        <ele>521</ele>
        <time>2000-01-01T01:19:40.000Z</time>
      </trkpt>
      <trkpt lat="45.54126" lon="3.73223">
        <ele>521</ele>
        <time>2000-01-01T01:19:50.000Z</time>
      </trkpt>
      <trkpt lat="45.54136" lon="3.73258">
        <ele>527</ele>
        <time>2000-01-01T01:20:00.000Z</time>
      </trkpt>
      <trkpt lat="45.54166" lon="3.73269">
        <ele>527</ele>
        <time>2000-01-01T01:20:10.000Z</time>
      </trkpt>
      <trkpt lat="45.54191" lon="3.73279">
        <ele>523</ele>
        <time>2000-01-01T01:20:20.000Z</time>
      </trkpt>
      <trkpt lat="45.54224" lon="3.73291">
        <ele>523</ele>
        <time>2000-01-01T01:20:30.000Z</time>
      </trkpt>
      <trkpt lat="45.54243" lon="3.73253">
        <ele>524</ele>
        <time>2000-01-01T01:20:40.000Z</time>
      </trkpt>
      <trkpt lat="45.54279" lon="3.73219">
        <ele>525</ele>
        <time>2000-01-01T01:20:50.000Z</time>
      </trkpt>
      <trkpt lat="45.5429" lon="3.73173">
        <ele>524</ele>
        <time>2000-01-01T01:21:00.000Z</time>
      </trkpt>
      <trkpt lat="45.54301" lon="3.73127">
        <ele>523</ele>
        <time>2000-01-01T01:21:10.000Z</time>
      </trkpt>
      <trkpt lat="45.5431" lon="3.73093">
        <ele>523</ele>
        <time>2000-01-01T01:21:20.000Z</time>
      </trkpt>
      <trkpt lat="45.54319" lon="3.73055">
        <ele>520</ele>
        <time>2000-01-01T01:21:30.000Z</time>
      </trkpt>
      <trkpt lat="45.54339" lon="3.7301">
        <ele>520</ele>
        <time>2000-01-01T01:21:40.000Z</time>
      </trkpt>
      <trkpt lat="45.54369" lon="3.72986">
        <ele>520</ele>
        <time>2000-01-01T01:21:50.000Z</time>
      </trkpt>
      <trkpt lat="45.54394" lon="3.72989">
        <ele>524</ele>
        <time>2000-01-01T01:22:00.000Z</time>
      </trkpt>
      <trkpt lat="45.54422" lon="3.72992">
        <ele>522</ele>
        <time>2000-01-01T01:22:10.000Z</time>
      </trkpt>
      <trkpt lat="45.54449" lon="3.73003">
        <ele>520</ele>
        <time>2000-01-01T01:22:20.000Z</time>
      </trkpt>
      <trkpt lat="45.54487" lon="3.7302">
        <ele>519</ele>
        <time>2000-01-01T01:22:30.000Z</time>
      </trkpt>
      <trkpt lat="45.54506" lon="3.73042">
        <ele>517</ele>
        <time>2000-01-01T01:22:40.000Z</time>
      </trkpt>
      <trkpt lat="45.54527" lon="3.73066">
        <ele>518</ele>
        <time>2000-01-01T01:22:50.000Z</time>
      </trkpt>
      <trkpt lat="45.54545" lon="3.73102">
        <ele>520</ele>
        <time>2000-01-01T01:23:00.000Z</time>
      </trkpt>
      <trkpt lat="45.54559" lon="3.73132">
        <ele>519</ele>
        <time>2000-01-01T01:23:10.000Z</time>
      </trkpt>
      <trkpt lat="45.54577" lon="3.73168">
        <ele>519</ele>
        <time>2000-01-01T01:23:20.000Z</time>
      </trkpt>
      <trkpt lat="45.54594" lon="3.73201">
        <ele>519</ele>
        <time>2000-01-01T01:23:30.000Z</time>
      </trkpt>
      <trkpt lat="45.5462" lon="3.7325">
        <ele>519</ele>
        <time>2000-01-01T01:23:40.000Z</time>
      </trkpt>
      <trkpt lat="45.54663" lon="3.73265">
        <ele>520</ele>
        <time>2000-01-01T01:23:50.000Z</time>
      </trkpt>
      <trkpt lat="45.54665" lon="3.73314">
        <ele>521</ele>
        <time>2000-01-01T01:24:00.000Z</time>
      </trkpt>
      <trkpt lat="45.54661" lon="3.73347">
        <ele>521</ele>
        <time>2000-01-01T01:24:10.000Z</time>
      </trkpt>
      <trkpt lat="45.54656" lon="3.73381">
        <ele>522</ele>
        <time>2000-01-01T01:24:20.000Z</time>
      </trkpt>
      <trkpt lat="45.54642" lon="3.73433">
        <ele>522</ele>
        <time>2000-01-01T01:24:30.000Z</time>
      </trkpt>
      <trkpt lat="45.54632" lon="3.73494">
        <ele>521</ele>
        <time>2000-01-01T01:24:40.000Z</time>
      </trkpt>
      <trkpt lat="45.5463" lon="3.7351">
        <ele>527</ele>
        <time>2000-01-01T01:24:50.000Z</time>
      </trkpt>
      <trkpt lat="45.5463" lon="3.73541">
        <ele>521</ele>
        <time>2000-01-01T01:25:00.000Z</time>
      </trkpt>
      <trkpt lat="45.54609" lon="3.7353">
        <ele>521</ele>
        <time>2000-01-01T01:25:10.000Z</time>
      </trkpt>
      <trkpt lat="45.54593" lon="3.73535">
        <ele>526.9</ele>
        <time>2000-01-01T01:25:20.000Z</time>
      </trkpt>
      <trkpt lat="45.54581" lon="3.73554">
        <ele>522</ele>
        <time>2000-01-01T01:25:30.000Z</time>
      </trkpt>
      <trkpt lat="45.54556" lon="3.73554">
        <ele>522</ele>
        <time>2000-01-01T01:25:40.000Z</time>
      </trkpt>
      <trkpt lat="45.54528" lon="3.73554">
        <ele>520</ele>
        <time>2000-01-01T01:25:50.000Z</time>
      </trkpt>
    </trkseg>
  </trk>
</gpx>